Time;durP1;ratioP1;P1;durP2;ratioP2;P2;SDS_P1;SDS_P2;PMS_P1;PMS_P2;Temp;Humidity;BMP_temperature;BMP_pressure;BME280_temperature;BME280_humidity;BME280_pressure;Samples;Min_cycle;Max_cycle;Signal;HPM_P1;HPM_P2
2022/01/23 00:00:00;;;;;;;8.20;5.07;;;;;;;3.85;69.10;101679.78;5040905;28;20032;-93
2022/01/23 00:02:59;;;;;;;8.48;5.07;;;;;;;4.05;68.71;101717.88;5041478;28;20113;-91
2022/01/23 00:09:33;;;;;;;7.38;4.90;;;;;;;3.72;70.14;101731.94;5072674;28;20093;-90
2022/01/23 00:12:04;;;;;;;7.15;5.05;;;;;;;3.56;68.92;101685.66;5055725;28;20485;-90
2022/01/23 00:17:25;;;;;;;8.43;5.30;;;;;;;3.51;70.05;101710.13;5051710;28;20540;-91
2022/01/23 00:20:21;;;;;;;7.80;5.05;;;;;;;3.88;68.97;101729.19;5033716;28;20111;-91
2022/01/23 00:30:18;;;;;;;8.10;5.50;;;;;;;3.60;69.42;101736.84;5034309;28;20052;-90
2022/01/23 00:30:20;;;;;;;7.78;4.88;;;;;;;3.49;69.31;101692.66;5031451;28;20037;-90
2022/01/23 00:32:02;;;;;;;7.55;5.00;;;;;;;3.25;70.27;101680.09;5031638;28;20032;-90
2022/01/23 00:34:36;;;;;;;8.05;4.97;;;;;;;3.35;70.25;101673.25;5031573;28;20033;-90
2022/01/23 00:37:09;;;;;;;6.70;4.80;;;;;;;3.79;69.20;101721.47;5032306;28;20060;-88
2022/01/23 00:39:40;;;;;;;8.68;5.43;;;;;;;3.76;69.52;101721.16;5031953;28;20037;-90
2022/01/23 00:42:25;;;;;;;10.63;5.22;;;;;;;3.75;69.69;101721.03;5034356;28;20029;-90
2022/01/23 00:45:00;;;;;;;8.40;5.43;;;;;;;3.40;69.45;101682.34;5034429;28;20041;-90
2022/01/23 00:47:54;;;;;;;9.18;5.57;;;;;;;3.59;70.26;101713.44;5035507;28;20181;-89
2022/01/23 00:50:21;;;;;;;7.28;4.95;;;;;;;3.45;69.88;101707.88;5034953;28;20123;-90
2022/01/23 00:52:51;;;;;;;7.82;5.15;;;;;;;3.25;70.17;101671.44;5050386;28;20651;-90
2022/01/23 00:55:28;;;;;;;8.18;5.03;;;;;;;3.46;69.92;101716.50;5034764;28;20029;-91
2022/01/23 00:58:00;;;;;;;8.77;5.75;;;;;;;3.39;69.43;101677.97;5050202;28;20045;-91
2022/01/23 01:00:25;;;;;;;9.02;4.75;;;;;;;3.35;69.92;101679.34;5033793;28;20029;-91
2022/01/23 01:03:04;;;;;;;8.55;5.13;;;;;;;3.38;69.26;101658.97;5050584;28;20021;-91
2022/01/23 01:05:39;;;;;;;8.95;5.30;;;;;;;3.46;69.13;101663.19;5034440;28;20123;-90
2022/01/23 01:08:11;;;;;;;9.77;5.50;;;;;;;3.60;69.34;101698.13;5050984;28;20029;-91
2022/01/23 01:31:50;;;;;;;9.82;5.47;;;;;;;3.28;69.36;101674.34;5030822;28;20037;-90
2022/01/23 01:34:34;;;;;;;8.18;5.30;;;;;;;3.60;69.06;101700.69;5030539;28;20037;-90
2022/01/23 01:37:09;;;;;;;8.55;5.10;;;;;;;3.38;69.58;101701.94;5030458;28;20025;-90
2022/01/23 01:39:40;;;;;;;8.80;5.55;;;;;;;3.43;69.61;101693.91;5014408;28;20037;-90
2022/01/23 01:42:08;;;;;;;9.35;5.78;;;;;;;3.44;70.02;101725.78;5032227;28;20403;-91
2022/01/23 01:44:48;;;;;;;9.43;5.78;;;;;;;3.18;70.23;101689.69;5031004;28;20021;-90
2022/01/23 01:47:13;;;;;;;8.90;5.85;;;;;;;2.98;69.28;101649.00;5013933;28;20032;-91
2022/01/23 01:49:57;;;;;;;10.70;5.87;;;;;;;3.45;69.50;101725.00;5014440;28;20112;-91
2022/01/23 01:52:43;;;;;;;9.70;5.82;;;;;;;3.40;69.44;101721.06;5028426;28;20785;-89
2022/01/23 01:55:16;;;;;;;9.93;5.93;;;;;;;3.41;69.38;101721.25;5011534;28;20105;-90
2022/01/23 01:57:54;;;;;;;9.05;5.43;;;;;;;3.02;69.95;101662.34;5000874;28;20029;-90
2022/01/23 02:00:52;;;;;;;9.75;5.75;;;;;;;3.38;69.63;101733.84;5014554;28;20103;-90
2022/01/23 02:08:38;;;;;;;9.80;5.93;;;;;;;3.34;69.02;101705.88;5035244;28;20111;-91
2022/01/23 02:11:17;;;;;;;10.98;5.60;;;;;;;2.71;69.28;101618.81;5034235;28;20398;-90
2022/01/23 02:13:57;;;;;;;10.10;5.95;;;;;;;2.98;69.31;101667.06;5018522;28;20068;-90
2022/01/23 02:17:25;;;;;;;10.05;6.28;;;;;;;3.41;69.43;101747.06;5033588;28;20095;-90
2022/01/23 02:53:39;;;;;;;10.30;5.43;;;;;;;3.38;69.95;101776.81;5033667;28;20095;-90
2022/01/23 02:56:32;;;;;;;9.40;5.93;;;;;;;3.32;69.22;101766.78;5033500;28;20487;-90
2022/01/23 03:02:35;;;;;;;9.95;5.60;;;;;;;3.60;68.83;101790.19;5034374;28;20109;-90
2022/01/23 03:05:02;;;;;;;8.95;5.43;;;;;;;3.21;69.07;101751.91;5017512;28;20033;-91
2022/01/23 03:10:45;;;;;;;9.02;5.30;;;;;;;3.52;69.28;101804.91;5053290;28;20033;-90
2022/01/23 03:24:27;;;;;;;9.80;5.50;;;;;;;3.35;69.50;101782.59;5053737;28;20112;-90
2022/01/23 03:27:25;;;;;;;7.65;5.10;;;;;;;3.32;68.96;101769.38;5052675;28;20035;-90
2022/01/23 03:30:39;;;;;;;7.25;4.68;;;;;;;3.09;69.14;101763.59;5053579;28;20040;-90
2022/01/23 03:32:49;;;;;;;9.10;5.55;;;;;;;3.04;69.48;101776.03;5047529;28;20414;-89
2022/01/23 03:35:26;;;;;;;9.02;5.38;;;;;;;3.25;68.84;101773.00;5036063;28;20029;-91
2022/01/23 03:37:53;;;;;;;8.98;5.40;;;;;;;3.28;69.09;101802.47;5052498;28;20116;-91
2022/01/23 03:40:31;;;;;;;7.93;5.22;;;;;;;3.29;69.43;101825.88;5035560;28;20087;-90
2022/01/23 03:43:13;;;;;;;9.02;5.03;;;;;;;2.98;69.83;101790.91;5035383;28;20083;-90
2022/01/23 03:51:23;;;;;;;9.05;5.07;;;;;;;3.44;69.18;101823.91;5032731;28;20056;-90
2022/01/23 03:53:52;;;;;;;7.50;4.68;;;;;;;3.18;69.96;101822.22;5033105;28;20068;-91
2022/01/23 03:56:31;;;;;;;7.95;4.70;;;;;;;3.36;69.27;101824.81;5037405;28;20032;-92
2022/01/23 03:59:01;;;;;;;8.80;5.20;;;;;;;3.06;69.30;101780.59;5051939;28;20029;-91
2022/01/23 04:01:36;;;;;;;7.97;4.68;;;;;;;3.21;70.04;101842.25;5035962;28;20094;-92
2022/01/23 04:04:56;;;;;;;8.43;5.28;;;;;;;3.33;69.74;101840.00;5035558;28;20087;-93
2022/01/23 04:07:44;;;;;;;7.95;4.95;;;;;;;3.34;69.19;101841.81;5051519;28;20037;-92
2022/01/23 04:11:01;;;;;;;8.05;5.00;;;;;;;3.16;69.76;101846.97;5035575;28;20039;-94
2022/01/23 05:05:25;;;;;;;7.80;4.93;;;;;;;3.12;68.97;101860.31;5046858;28;20396;-90
2022/01/23 05:07:50;;;;;;;10.20;5.63;;;;;;;3.23;68.60;101871.72;5031457;28;20053;-90
2022/01/23 05:10:27;;;;;;;8.80;5.47;;;;;;;2.75;69.82;101848.84;5031504;28;20402;-91
2022/01/23 05:12:58;;;;;;;8.02;5.18;;;;;;;3.04;68.94;101862.09;5050842;28;20083;-92
2022/01/23 05:15:29;;;;;;;8.40;5.07;;;;;;;2.87;69.50;101851.75;5034452;28;20505;-92
2022/01/23 05:17:54;;;;;;;7.80;5.20;;;;;;;2.70;69.36;101842.28;5050432;28;20053;-91
2022/01/23 05:20:27;;;;;;;8.65;5.25;;;;;;;3.07;69.10;101887.34;5051438;28;20405;-91
2022/01/23 05:23:02;;;;;;;7.40;4.88;;;;;;;2.86;69.47;101855.09;5050752;28;20482;-92
2022/01/23 05:25:43;;;;;;;7.68;5.30;;;;;;;2.86;69.30;101839.63;5035475;28;20614;-91
2022/01/23 05:28:18;;;;;;;8.18;5.15;;;;;;;2.53;68.87;101796.72;5034593;28;20121;-92
2022/01/23 05:30:44;;;;;;;7.93;5.35;;;;;;;2.56;69.47;101811.59;5040248;28;20029;-92
2022/01/23 05:33:10;;;;;;;8.23;5.20;;;;;;;2.87;69.58;101862.06;5051116;28;20025;-92
2022/01/23 05:35:42;;;;;;;9.77;6.00;;;;;;;2.79;69.04;101839.72;5040093;28;20428;-92
2022/01/23 05:38:13;;;;;;;9.90;5.15;;;;;;;2.81;69.10;101862.34;5035029;28;20458;-92
2022/01/23 05:40:40;;;;;;;8.35;5.60;;;;;;;3.00;69.05;101897.75;5038328;28;20413;-88
2022/01/23 05:43:18;;;;;;;8.20;5.25;;;;;;;2.76;69.33;101878.13;5057931;28;20478;-93
2022/01/23 05:45:53;;;;;;;9.73;5.53;;;;;;;3.18;68.47;101907.41;5042980;28;20035;-94
2022/01/23 05:48:21;;;;;;;8.57;5.35;;;;;;;2.64;69.35;101860.59;5041128;28;20032;-94
2022/01/23 05:51:12;;;;;;;9.75;5.72;;;;;;;2.94;69.89;101920.34;5038385;28;20065;-92
2022/01/23 05:53:39;;;;;;;9.35;5.50;;;;;;;2.74;69.80;101900.25;5039873;28;20021;-94
2022/01/23 05:56:06;;;;;;;9.20;5.28;;;;;;;3.02;69.16;101922.97;5038154;28;20056;-94
2022/01/23 05:58:37;;;;;;;11.35;5.78;;;;;;;2.61;69.39;101861.97;5038018;28;20033;-93
2022/01/23 06:01:02;;;;;;;8.57;5.78;;;;;;;2.48;69.49;101862.38;5038181;28;20087;-92
2022/01/23 06:03:36;;;;;;;10.05;5.60;;;;;;;2.96;69.50;101930.06;5035256;28;20021;-93
2022/01/23 06:06:05;;;;;;;9.73;5.60;;;;;;;2.59;69.35;101884.13;5037939;28;20048;-92
2022/01/23 06:08:48;;;;;;;8.95;5.30;;;;;;;2.80;69.52;101924.13;5029949;28;20032;-91
2022/01/23 06:11:22;;;;;;;10.07;5.68;;;;;;;2.67;69.21;101870.34;5052296;28;20033;-91
2022/01/23 06:13:49;;;;;;;9.82;5.57;;;;;;;2.85;68.92;101894.53;5036492;28;20082;-89
2022/01/23 06:16:28;;;;;;;7.57;5.30;;;;;;;3.03;69.24;101954.88;5054842;28;20037;-88
2022/01/23 06:18:55;;;;;;;8.18;5.47;;;;;;;2.58;69.02;101872.91;5042581;28;20045;-86
2022/01/23 06:21:41;;;;;;;8.70;5.15;;;;;;;3.11;68.67;101973.69;5040579;28;20115;-89
2022/01/23 06:24:22;;;;;;;8.68;5.55;;;;;;;2.95;69.14;101969.53;5036686;28;20044;-89
2022/01/23 06:26:52;;;;;;;9.27;5.50;;;;;;;2.62;69.00;101925.69;5038356;28;20033;-88
2022/01/23 06:29:30;;;;;;;7.55;5.20;;;;;;;2.69;69.08;101945.28;5036939;28;20029;-89
2022/01/23 06:31:58;;;;;;;9.77;5.65;;;;;;;2.84;69.46;101993.34;5033029;28;20049;-87
2022/01/23 06:34:24;;;;;;;10.10;5.70;;;;;;;2.60;69.95;101943.59;5036240;28;20033;-85
2022/01/23 06:36:53;;;;;;;9.30;5.90;;;;;;;2.51;69.56;101916.81;5053755;28;20087;-88
2022/01/23 06:39:20;;;;;;;8.38;5.93;;;;;;;2.61;69.29;101947.06;5036513;28;20067;-88
2022/01/23 06:41:49;;;;;;;10.05;5.28;;;;;;;2.75;69.36;101944.28;5036146;28;20036;-88
2022/01/23 06:44:16;;;;;;;9.60;5.78;;;;;;;2.74;69.47;101978.53;5038653;28;20029;-89
2022/01/23 06:47:05;;;;;;;9.80;5.82;;;;;;;2.80;69.54;101986.94;5031712;28;20492;-91
2022/01/23 06:49:34;;;;;;;9.10;5.75;;;;;;;2.81;69.53;101986.16;5035478;28;20037;-90
2022/01/23 06:55:21;;;;;;;8.88;6.05;;;;;;;2.57;69.41;101952.66;5054666;28;20120;-92
2022/01/23 06:58:09;;;;;;;9.30;6.22;;;;;;;2.72;69.68;102000.69;5053968;28;20112;-92
2022/01/23 07:00:43;;;;;;;9.50;5.93;;;;;;;2.94;69.26;101987.44;5049597;28;20067;-88
2022/01/23 07:03:12;;;;;;;10.52;5.93;;;;;;;2.51;69.23;101937.44;5048477;28;20057;-89
2022/01/23 07:05:47;;;;;;;9.70;5.97;;;;;;;2.67;69.07;101934.81;5036775;28;20083;-91
2022/01/23 07:08:13;;;;;;;10.90;5.80;;;;;;;2.69;69.58;101976.22;5036786;28;20490;-89
2022/01/23 07:10:48;;;;;;;11.90;6.50;;;;;;;2.75;69.61;101992.34;5058143;28;20021;-89
2022/01/23 07:13:38;;;;;;;9.90;6.25;;;;;;;2.90;68.50;101995.63;5055812;28;20028;-89
2022/01/23 07:16:45;;;;;;;10.25;6.43;;;;;;;2.70;69.90;101998.69;5037850;28;20025;-93
2022/01/23 07:19:14;;;;;;;11.45;6.28;;;;;;;2.56;69.15;101961.13;5049535;28;20050;-90
2022/01/23 07:21:41;;;;;;;10.48;6.47;;;;;;;2.58;69.84;101969.94;5035246;28;20025;-92
2022/01/23 07:24:07;;;;;;;11.18;6.22;;;;;;;2.68;69.72;102003.69;5038035;28;20033;-92
2022/01/23 07:29:59;;;;;;;10.85;6.53;;;;;;;2.61;69.81;101967.72;5055384;28;20094;-93
2022/01/23 07:32:37;;;;;;;11.32;6.40;;;;;;;2.63;69.98;101995.47;5036946;28;20021;-90
2022/01/23 07:35:07;;;;;;;11.25;6.80;;;;;;;2.57;69.36;101966.47;5052263;28;20090;-90
2022/01/23 07:37:37;;;;;;;10.15;6.47;;;;;;;2.62;69.23;101980.78;5036305;28;20032;-91
2022/01/23 07:40:41;;;;;;;11.32;6.43;;;;;;;2.74;69.82;102006.91;5053359;28;20029;-90
2022/01/23 07:43:15;;;;;;;9.93;6.30;;;;;;;2.77;69.34;102016.63;5054487;28;20501;-89
2022/01/23 07:45:45;;;;;;;10.70;6.15;;;;;;;2.64;69.66;101996.38;5017921;28;20029;-88
2022/01/23 07:48:29;;;;;;;11.48;6.40;;;;;;;2.54;69.75;101986.78;5030297;28;20030;-90
2022/01/23 07:50:59;;;;;;;11.23;6.30;;;;;;;2.58;69.86;101963.16;5047512;28;20048;-89
2022/01/23 07:53:56;;;;;;;10.80;6.13;;;;;;;2.70;70.23;102009.94;5035784;28;20021;-90
2022/01/23 07:56:26;;;;;;;9.85;6.07;;;;;;;2.81;69.28;102011.06;5050844;28;20029;-90
2022/01/23 07:59:14;;;;;;;10.27;6.35;;;;;;;2.84;69.42;102009.72;5034602;28;20507;-90
2022/01/23 08:01:45;;;;;;;10.70;6.15;;;;;;;2.64;69.45;101978.31;5036139;28;20029;-93
2022/01/23 08:04:23;;;;;;;11.27;6.20;;;;;;;2.49;69.11;101944.13;5035374;28;20096;-89
2022/01/23 08:07:07;;;;;;;11.18;6.35;;;;;;;2.74;69.20;101999.19;5036325;28;20032;-92
2022/01/23 08:09:39;;;;;;;10.70;6.47;;;;;;;2.84;69.22;102001.97;5050131;28;20021;-90
2022/01/23 08:15:30;;;;;;;10.07;6.15;;;;;;;2.69;69.54;102002.94;5039016;28;20033;-92
2022/01/23 08:18:04;;;;;;;11.57;6.32;;;;;;;2.65;69.44;102006.88;5047469;28;20080;-91
2022/01/23 08:20:36;;;;;;;8.48;5.80;;;;;;;2.29;69.96;101954.91;5037735;28;20111;-90
2022/01/23 08:23:13;;;;;;;10.00;5.80;;;;;;;2.54;69.27;101985.84;5054450;28;20035;-89
2022/01/23 08:25:45;;;;;;;8.93;5.60;;;;;;;2.57;69.42;101987.09;5054322;28;20046;-89
2022/01/23 08:28:14;;;;;;;9.68;5.90;;;;;;;2.43;68.95;101958.94;5037678;28;20032;-90
2022/01/23 08:30:40;;;;;;;10.52;6.38;;;;;;;2.61;68.71;101989.25;5038204;28;20032;-87
2022/01/23 08:33:06;;;;;;;9.85;6.10;;;;;;;2.63;68.52;101973.94;5037121;28;20114;-86
2022/01/23 08:35:45;;;;;;;9.20;5.47;;;;;;;2.74;68.38;101999.19;5055183;28;20028;-91
2022/01/23 08:38:27;;;;;;;12.10;5.90;;;;;;;2.41;68.62;101983.63;5038457;28;20043;-94
2022/01/23 08:44:15;;;;;;;9.75;5.75;;;;;;;2.42;68.62;101908.16;5055898;28;20039;-93
2022/01/23 08:46:49;;;;;;;9.10;5.60;;;;;;;2.66;68.59;101971.66;4964155;28;20047;-95
2022/01/23 08:49:47;;;;;;;9.75;5.70;;;;;;;2.84;68.45;102012.28;5047728;28;20071;-95
2022/01/23 08:52:21;;;;;;;8.70;5.32;;;;;;;1.70;68.72;101841.28;5056695;28;20028;-93
2022/01/23 08:55:10;;;;;;;9.13;5.63;;;;;;;2.74;69.08;102026.66;5035448;28;20043;-92
2022/01/23 08:57:41;;;;;;;10.15;5.18;;;;;;;2.84;68.27;102022.59;5035011;28;20025;-93
2022/01/23 09:00:23;;;;;;;9.90;5.80;;;;;;;2.69;68.20;101977.16;5035210;28;20089;-95
2022/01/23 09:02:57;;;;;;;9.55;5.70;;;;;;;2.52;68.12;101940.94;5018036;28;20025;-92
2022/01/23 09:05:37;;;;;;;10.20;5.40;;;;;;;2.76;69.08;102015.72;5050226;28;20016;-93
2022/01/23 09:08:09;;;;;;;9.73;5.63;;;;;;;2.87;68.12;102003.94;5037175;28;20025;-92
2022/01/23 09:10:52;;;;;;;9.65;5.80;;;;;;;3.06;67.89;102015.44;5054292;28;20020;-90
2022/01/23 09:16:16;;;;;;;10.10;5.35;;;;;;;2.91;68.79;102003.53;5038034;28;20035;-89
2022/01/23 09:18:41;;;;;;;10.43;5.65;;;;;;;2.67;68.49;101955.47;5042924;28;20041;-88
2022/01/23 09:21:08;;;;;;;9.15;5.57;;;;;;;2.89;68.44;101976.66;5037976;28;20028;-88
2022/01/23 09:23:38;;;;;;;7.85;5.30;;;;;;;2.95;68.31;101989.28;5038037;28;20025;-91
2022/01/23 09:26:13;;;;;;;8.63;5.28;;;;;;;2.55;67.85;101918.97;5055700;28;20061;-88
2022/01/23 09:28:47;;;;;;;9.35;5.45;;;;;;;2.76;68.14;101992.50;5054279;28;20027;-88
2022/01/23 09:31:23;;;;;;;9.85;5.63;;;;;;;2.74;68.48;101978.53;5038047;28;20043;-87
2022/01/23 09:33:49;;;;;;;8.88;5.68;;;;;;;2.75;67.44;101938.19;5035994;28;20083;-87
2022/01/23 09:36:16;;;;;;;8.07;5.40;;;;;;;2.67;68.22;101973.50;5042863;28;20045;-89
2022/01/23 09:38:43;;;;;;;11.85;6.15;;;;;;;2.39;68.05;101928.44;5053647;28;20530;-88
2022/01/23 09:41:15;;;;;;;12.35;6.40;;;;;;;2.65;68.81;101993.97;5055693;28;20087;-88
2022/01/23 09:44:03;;;;;;;10.70;5.97;;;;;;;2.73;68.00;101986.09;5036849;28;20502;-88
2022/01/23 09:47:06;;;;;;;10.45;6.25;;;;;;;2.67;68.15;101985.47;5053611;28;20474;-92
2022/01/23 09:50:05;;;;;;;11.63;6.13;;;;;;;2.48;69.01;101978.41;5055556;28;20039;-92
2022/01/23 09:53:01;;;;;;;13.60;6.80;;;;;;;2.75;68.21;101967.50;5055231;28;20036;-93
2022/01/23 09:55:59;;;;;;;12.90;6.70;;;;;;;2.56;69.35;101971.44;5036834;28;20040;-92
2022/01/23 09:58:28;;;;;;;15.77;6.93;;;;;;;2.81;68.15;101969.78;5054323;28;20114;-92
2022/01/23 10:00:55;;;;;;;13.45;7.68;;;;;;;2.58;68.47;101944.16;5037491;28;20029;-92
2022/01/23 10:03:24;;;;;;;14.40;7.28;;;;;;;2.54;68.44;101934.28;5054487;28;20525;-91
2022/01/23 10:06:08;;;;;;;12.95;7.40;;;;;;;2.54;68.38;101927.47;5055184;28;20519;-90
2022/01/23 10:08:35;;;;;;;14.60;7.45;;;;;;;2.61;67.95;101901.56;5036834;28;20112;-90
2022/01/23 10:11:13;;;;;;;12.85;7.20;;;;;;;2.88;68.40;101950.69;5024242;28;20044;-91
2022/01/23 10:13:44;;;;;;;13.32;7.45;;;;;;;2.37;68.77;101889.63;5053730;28;20413;-91
2022/01/23 10:16:24;;;;;;;16.73;6.90;;;;;;;2.67;67.75;101903.88;5037350;28;20035;-91
2022/01/23 10:18:53;;;;;;;12.48;7.38;;;;;;;2.73;68.51;101940.63;5036869;28;20102;-91
2022/01/23 10:21:35;;;;;;;11.20;7.28;;;;;;;2.50;67.67;101878.91;5037372;28;20052;-91
2022/01/23 10:24:09;;;;;;;14.60;7.47;;;;;;;2.54;69.05;101919.75;5053737;28;20059;-90
2022/01/23 10:27:29;;;;;;;11.18;6.93;;;;;;;2.87;67.98;101939.47;5037295;28;20064;-90
2022/01/23 10:30:01;;;;;;;14.07;7.50;;;;;;;2.60;67.80;101873.03;5054956;28;20033;-91
2022/01/23 10:33:07;;;;;;;11.25;6.70;;;;;;;2.87;68.10;101943.72;5034531;28;20047;-92
2022/01/23 10:36:10;;;;;;;12.75;6.93;;;;;;;3.17;67.20;101936.53;5035753;28;20110;-90
2022/01/23 10:38:55;;;;;;;11.57;7.20;;;;;;;3.00;67.54;101924.47;5040109;28;20033;-91
2022/01/23 10:50:07;;;;;;;13.38;7.38;;;;;;;2.88;68.20;101919.72;5043791;28;20037;-90
2022/01/23 10:52:47;;;;;;;13.25;7.25;;;;;;;3.02;67.48;101922.97;5016276;28;20033;-89
2022/01/23 10:55:13;;;;;;;11.57;6.68;;;;;;;2.82;68.19;101905.44;5039923;28;20060;-88
2022/01/23 10:57:53;;;;;;;14.33;7.17;;;;;;;2.80;68.41;101901.81;5034940;28;20495;-89
2022/01/23 11:00:35;;;;;;;12.70;6.72;;;;;;;2.72;68.81;101899.19;5020248;28;20308;-90
2022/01/23 11:03:24;;;;;;;13.02;7.18;;;;;;;2.95;67.89;101902.47;5034057;28;20588;-91
2022/01/23 11:05:52;;;;;;;11.25;6.50;;;;;;;2.44;68.08;101821.56;5019397;28;20037;-90
2022/01/23 11:08:33;;;;;;;11.13;6.80;;;;;;;3.01;67.53;101907.34;5052517;28;20090;-89
2022/01/23 11:11:09;;;;;;;13.48;6.70;;;;;;;2.53;68.42;101861.19;5036724;28;20027;-90
2022/01/23 11:19:40;;;;;;;11.18;6.60;;;;;;;2.92;67.22;101876.38;5058761;28;20056;-89
2022/01/23 11:22:26;;;;;;;12.35;6.15;;;;;;;2.82;68.09;101887.41;5053508;28;20081;-89
2022/01/23 11:25:00;;;;;;;11.93;6.20;;;;;;;2.74;67.95;101893.44;5035946;28;20497;-89
2022/01/23 11:27:34;;;;;;;9.48;5.70;;;;;;;2.16;67.82;101808.41;5052403;28;20123;-89
2022/01/23 11:30:12;;;;;;;9.73;6.03;;;;;;;2.74;67.48;101893.44;5052126;28;20029;-88
2022/01/23 11:32:41;;;;;;;10.93;6.20;;;;;;;2.81;67.40;101893.28;5048419;28;20033;-87
2022/01/23 11:35:12;;;;;;;10.20;6.00;;;;;;;2.26;68.12;101811.91;5032238;28;20056;-89
2022/01/23 11:37:49;;;;;;;9.73;6.07;;;;;;;2.65;67.69;101892.50;5015441;28;20052;-90
2022/01/23 11:40:41;;;;;;;10.65;5.97;;;;;;;1.76;68.57;101737.28;5051299;28;20505;-89
2022/01/23 11:54:49;;;;;;;10.27;5.63;;;;;;;2.59;68.45;101869.53;5013340;28;20465;-88
2022/01/23 11:57:43;;;;;;;11.45;6.22;;;;;;;2.63;69.21;101886.25;5025990;28;20040;-90
2022/01/23 12:00:16;;;;;;;10.10;5.88;;;;;;;2.52;69.36;101892.88;5051204;28;20035;-89
2022/01/23 12:02:44;;;;;;;11.63;6.20;;;;;;;2.33;69.59;101847.88;5050728;28;20041;-89
2022/01/23 12:05:10;;;;;;;9.05;5.50;;;;;;;2.73;68.50;101890.69;5051410;28;20033;-89
2022/01/23 12:07:39;;;;;;;9.48;5.95;;;;;;;2.55;68.42;101853.59;5051817;28;20017;-88
2022/01/23 12:10:46;;;;;;;9.73;6.28;;;;;;;2.86;68.23;101891.22;5034788;28;20029;-89
2022/01/23 12:13:55;;;;;;;10.40;5.88;;;;;;;2.73;68.19;101896.78;5023402;28;20032;-89
2022/01/23 12:16:25;;;;;;;11.02;6.15;;;;;;;2.52;69.61;101897.09;5047675;28;20040;-89
2022/01/23 12:19:18;;;;;;;8.45;5.70;;;;;;;3.01;67.82;101894.44;5049703;28;20082;-89
2022/01/23 12:21:46;;;;;;;10.50;6.30;;;;;;;2.69;68.74;101888.53;5017227;28;20139;-89
2022/01/23 12:24:14;;;;;;;9.05;6.03;;;;;;;2.81;68.79;101892.38;5051768;28;20028;-89
2022/01/23 12:26:43;;;;;;;8.55;6.05;;;;;;;2.65;68.70;101869.28;5027980;28;20021;-89
2022/01/23 12:29:18;;;;;;;10.32;6.63;;;;;;;2.63;69.21;101899.16;5034714;28;20426;-87
2022/01/23 12:31:45;;;;;;;12.00;7.03;;;;;;;2.04;69.07;101791.66;5034815;28;20032;-89
2022/01/23 12:34:11;;;;;;;9.95;6.20;;;;;;;2.12;69.38;101802.78;5033972;28;20098;-88
2022/01/23 12:36:40;;;;;;;10.15;6.63;;;;;;;2.46;69.54;101865.56;5034130;28;20033;-88
2022/01/23 12:39:20;;;;;;;9.65;6.32;;;;;;;2.00;69.07;101797.25;5050853;28;20029;-91
2022/01/23 12:41:51;;;;;;;11.93;6.63;;;;;;;2.55;69.35;101912.91;5034185;28;20032;-92
2022/01/23 12:44:23;;;;;;;11.68;6.40;;;;;;;2.57;69.23;101908.81;5051986;28;20086;-90
2022/01/23 12:46:54;;;;;;;10.13;6.32;;;;;;;2.22;69.38;101842.53;5048899;28;20028;-88
2022/01/23 12:49:34;;;;;;;10.48;6.60;;;;;;;2.17;69.67;101855.69;5033432;28;20032;-89
2022/01/23 12:52:09;;;;;;;9.82;6.18;;;;;;;2.50;69.88;101922.75;5050155;28;20470;-90
2022/01/23 12:54:47;;;;;;;11.25;6.55;;;;;;;2.62;69.21;101918.88;5050212;28;20090;-90
2022/01/23 12:57:30;;;;;;;10.38;6.50;;;;;;;2.56;69.69;101920.81;5030430;28;20033;-92
2022/01/23 13:00:01;;;;;;;9.35;6.47;;;;;;;2.41;69.59;101889.19;5030210;28;20505;-91
2022/01/23 13:02:47;;;;;;;10.70;6.57;;;;;;;2.47;69.49;101894.06;5036832;28;20491;-91
2022/01/23 13:05:20;;;;;;;10.45;6.65;;;;;;;2.06;69.51;101823.66;5042200;28;20045;-90
2022/01/23 13:13:17;;;;;;;10.95;6.57;;;;;;;2.77;68.97;101911.81;5051190;28;20036;-90
2022/01/23 13:16:16;;;;;;;10.73;6.75;;;;;;;2.73;69.43;101914.84;5038086;28;20480;-90
2022/01/23 13:18:52;;;;;;;11.38;6.85;;;;;;;2.59;68.80;101884.13;5038910;28;20056;-90
2022/01/23 13:32:14;;;;;;;11.77;7.00;;;;;;;2.83;69.12;101939.88;5055464;28;20036;-91
2022/01/23 13:35:02;;;;;;;10.68;7.15;;;;;;;2.92;68.73;101942.50;5037509;28;20087;-91
2022/01/23 13:37:32;;;;;;;12.10;7.13;;;;;;;2.57;68.58;101889.09;5037941;28;20115;-90
2022/01/23 13:40:04;;;;;;;11.98;6.93;;;;;;;2.79;68.12;101899.06;5037631;28;20068;-90
2022/01/23 14:00:00;;;;;;;10.88;7.15;;;;;;;2.92;69.03;101942.50;5049658;28;20113;-90
2022/01/23 14:02:44;;;;;;;13.15;6.70;;;;;;;2.74;68.88;101932.13;5060165;28;20058;-90
2022/01/23 14:05:20;;;;;;;11.13;6.40;;;;;;;2.97;68.33;101925.84;5040717;28;20097;-89
2022/01/23 14:07:50;;;;;;;10.63;6.45;;;;;;;2.74;69.23;101951.84;5021308;28;20196;-89
2022/01/23 14:10:32;;;;;;;11.00;6.70;;;;;;;2.60;68.56;101894.59;5055593;28;20485;-88
2022/01/23 14:13:11;;;;;;;10.30;6.22;;;;;;;2.99;68.14;101957.88;5040113;28;20035;-88
2022/01/23 14:15:52;;;;;;;10.57;6.90;;;;;;;2.93;68.19;101957.25;5056660;28;20025;-89
2022/01/23 14:18:26;;;;;;;11.25;6.53;;;;;;;2.79;68.59;101928.34;5057183;28;20056;-89
2022/01/23 14:21:04;;;;;;;11.18;6.45;;;;;;;2.43;68.78;101900.56;5039235;28;20075;-91
2022/01/23 14:23:31;;;;;;;10.77;7.05;;;;;;;2.35;69.46;101911.75;5039579;28;20063;-91
2022/01/23 14:26:15;;;;;;;12.13;6.72;;;;;;;2.98;69.34;101971.53;5056255;28;20038;-91
2022/01/23 14:28:50;;;;;;;10.48;6.50;;;;;;;2.56;68.93;101932.78;5039650;28;20052;-90
2022/01/23 14:31:24;;;;;;;12.95;6.90;;;;;;;2.31;69.09;101893.19;5056927;28;20032;-92
2022/01/23 14:33:57;;;;;;;11.40;6.97;;;;;;;2.41;69.34;101924.34;5055822;28;20052;-89
2022/01/23 14:36:30;;;;;;;12.68;6.80;;;;;;;2.82;69.16;101979.34;5040104;28;20047;-88
2022/01/23 14:39:14;;;;;;;12.27;6.95;;;;;;;2.79;69.31;101977.34;5040402;28;20051;-91
2022/01/23 14:41:44;;;;;;;10.65;6.10;;;;;;;2.81;68.94;101967.19;5056319;28;20054;-92
2022/01/23 14:44:25;;;;;;;11.63;6.88;;;;;;;2.55;68.92;101943.84;5040032;28;20564;-92
2022/01/23 14:46:57;;;;;;;10.65;6.72;;;;;;;2.67;68.79;101939.97;5039467;28;20513;-89
2022/01/23 14:49:33;;;;;;;12.30;6.80;;;;;;;2.49;68.71;101935.47;5055871;28;20035;-89
2022/01/23 14:52:01;;;;;;;9.82;6.32;;;;;;;2.81;68.99;101954.28;5039004;28;20036;-87
2022/01/23 14:54:31;;;;;;;9.68;6.03;;;;;;;2.72;68.98;101977.47;5039938;28;20043;-88
2022/01/23 14:57:04;;;;;;;10.40;6.40;;;;;;;2.99;68.39;101989.75;5039711;28;20036;-90
2022/01/23 14:59:32;;;;;;;10.00;6.60;;;;;;;2.91;69.01;102005.19;5056131;28;20031;-91
2022/01/23 15:01:58;;;;;;;10.70;6.57;;;;;;;2.32;69.06;101926.88;5056508;28;20090;-91
2022/01/23 15:04:27;;;;;;;10.70;6.55;;;;;;;2.66;69.44;101987.13;5042648;28;20489;-91
2022/01/23 15:07:16;;;;;;;10.52;6.47;;;;;;;3.12;68.41;102011.69;5040208;28;20025;-91
2022/01/23 15:09:47;;;;;;;11.77;7.32;;;;;;;2.73;68.61;101981.91;5040383;28;20508;-92
2022/01/23 15:12:14;;;;;;;11.27;6.82;;;;;;;2.69;68.98;101997.78;5037998;28;20025;-91
2022/01/23 15:14:41;;;;;;;11.10;6.88;;;;;;;2.68;69.92;102016.59;5055746;28;20428;-91
2022/01/23 15:17:26;;;;;;;12.48;7.50;;;;;;;2.38;68.89;101945.56;5039067;28;20520;-91
2022/01/23 15:19:59;;;;;;;11.65;7.40;;;;;;;2.65;69.56;102017.19;5051684;28;20041;-91
2022/01/23 15:23:05;;;;;;;12.23;7.55;;;;;;;2.92;69.22;102027.66;5052452;28;20028;-90
2022/01/23 15:25:31;;;;;;;13.07;7.50;;;;;;;2.79;69.52;102022.88;5032424;28;20026;-90
2022/01/23 15:28:12;;;;;;;;;;;;;;;3.00;68.66;102027.69;5016649;28;20092;-91
2022/01/23 15:31:11;;;;;;;12.55;6.95;;;;;;;2.83;68.87;102027.59;5053288;28;20002;-92
2022/01/23 15:37:33;;;;;;;10.95;7.00;;;;;;;2.93;68.71;102045.88;5053122;28;20040;-91
2022/01/23 15:40:13;;;;;;;11.98;7.65;;;;;;;2.81;68.77;102037.75;5051813;28;20037;-92
2022/01/23 15:42:56;;;;;;;13.05;8.00;;;;;;;2.41;69.27;102005.19;5024668;28;20068;-90
2022/01/23 15:45:29;;;;;;;13.10;8.00;;;;;;;2.64;69.91;102042.81;5052002;28;20059;-91
2022/01/23 15:48:02;;;;;;;14.02;8.13;;;;;;;2.79;68.90;102041.84;5052264;28;20025;-90
2022/01/23 15:50:28;;;;;;;13.13;8.18;;;;;;;2.65;69.26;102052.38;5034681;28;20486;-88
2022/01/23 15:53:04;;;;;;;13.00;8.13;;;;;;;2.68;69.62;102044.06;5034974;28;20031;-92
2022/01/23 15:55:37;;;;;;;11.95;7.43;;;;;;;2.71;69.62;102067.56;5052665;28;20520;-91
2022/01/23 15:58:14;;;;;;;13.23;8.40;;;;;;;2.42;69.59;102037.94;5052038;28;20040;-94